createdAt,value
2023-03-25T00:03:37.014Z,8.30
2023-03-25T00:07:38.316Z,8.60
2023-03-25T00:11:39.439Z,8.30
2023-03-25T00:15:45.084Z,8.30
2023-03-25T00:19:46.124Z,8.00
2023-03-25T00:23:47.164Z,8.10
2023-03-25T00:27:50.057Z,8.00
2023-03-25T00:31:51.055Z,8.00
2023-03-25T00:35:53.945Z,8.00
2023-03-25T00:39:55.218Z,8.30
2023-03-25T00:43:58.544Z,8.20
2023-03-25T00:47:59.943Z,8.20
2023-03-25T00:52:01.372Z,8.10
2023-03-25T00:56:03.790Z,7.70
2023-03-25T01:00:07.899Z,8.00
2023-03-25T01:04:11.361Z,7.80
2023-03-25T01:08:14.229Z,7.60
2023-03-25T01:12:16.141Z,8.40
2023-03-25T01:16:17.434Z,9.10
2023-03-25T01:20:18.692Z,7.80
2023-03-25T01:24:20.059Z,7.60
2023-03-25T01:28:21.291Z,7.60
2023-03-25T01:32:22.341Z,8.20
2023-03-25T01:36:27.726Z,8.40
2023-03-25T01:40:28.777Z,8.60
2023-03-25T01:44:33.595Z,8.60
2023-03-25T01:48:38.078Z,8.50
2023-03-25T01:52:40.211Z,9.20
2023-03-25T01:56:41.846Z,9.70
2023-03-25T02:00:44.796Z,9.10
2023-03-25T02:04:54.660Z,9.10
2023-03-25T02:08:58.260Z,9.30
2023-03-25T02:13:00.649Z,8.40
2023-03-25T02:17:26.931Z,9.10
2023-03-25T02:21:49.662Z,9.20
2023-03-25T02:26:20.174Z,9.30
2023-03-25T02:30:30.711Z,9.40
2023-03-25T02:34:52.243Z,9.40
2023-03-25T02:39:00.313Z,8.30
2023-03-25T02:43:05.361Z,8.70
2023-03-25T02:47:10.501Z,8.70
2023-03-25T02:51:15.439Z,8.70
2023-03-25T02:55:19.927Z,9.00
2023-03-25T02:59:21.623Z,8.70
2023-03-25T03:03:22.834Z,8.80
2023-03-25T03:07:30.880Z,8.90
2023-03-25T03:11:47.663Z,9.30
2023-03-25T03:15:55.514Z,8.80
2023-03-25T03:20:00.307Z,8.90
2023-03-25T03:24:10.636Z,8.70
2023-03-25T03:28:30.537Z,9.00
2023-03-25T03:32:42.793Z,9.10
2023-03-25T03:36:47.674Z,8.80
2023-03-25T03:40:52.622Z,9.00
2023-03-25T03:44:57.538Z,9.10
2023-03-25T03:49:01.849Z,9.20
2023-03-25T03:53:12.510Z,9.40
2023-03-25T03:57:31.958Z,9.70
2023-03-25T04:01:37.357Z,9.10
2023-03-25T04:05:41.207Z,9.30
2023-03-25T04:09:55.865Z,9.40
2023-03-25T04:13:59.744Z,8.60
2023-03-25T04:18:01.257Z,8.60
2023-03-25T04:22:04.178Z,8.70
2023-03-25T04:26:05.673Z,8.60
2023-03-25T04:30:08.097Z,7.80
2023-03-25T04:34:09.555Z,8.70
2023-03-25T04:38:11.158Z,8.30
2023-03-25T04:42:13.098Z,8.10
2023-03-25T04:46:15.363Z,8.40
2023-03-25T04:50:26.472Z,8.40
2023-03-25T04:54:27.529Z,8.20
2023-03-25T04:58:28.612Z,8.90
2023-03-25T05:02:30.526Z,8.70
2023-03-25T05:06:37.858Z,8.70
2023-03-25T05:10:39.526Z,8.10
2023-03-25T05:14:40.647Z,7.60
2023-03-25T05:18:41.597Z,7.80
2023-03-25T05:22:44.603Z,8.30
2023-03-25T05:26:45.696Z,8.00
2023-03-25T05:30:47.696Z,8.00
2023-03-25T05:34:48.797Z,8.30
2023-03-25T05:38:53.446Z,7.90
2023-03-25T05:42:55.558Z,8.10
2023-03-25T05:46:58.342Z,8.70
2023-03-25T05:51:03.363Z,8.10
2023-03-25T05:55:05.180Z,8.40
2023-03-25T05:59:07.419Z,8.50
2023-03-25T06:03:08.813Z,8.70
2023-03-25T06:07:13.832Z,8.00
2023-03-25T06:11:16.490Z,8.20
2023-03-25T06:15:17.812Z,8.30
2023-03-25T06:19:18.905Z,8.90
2023-03-25T06:23:23.543Z,8.40
2023-03-25T06:27:26.444Z,9.20
2023-03-25T06:31:27.595Z,9.00
2023-03-25T06:35:50.728Z,8.80
2023-03-25T06:39:53.923Z,8.80
2023-03-25T06:43:55.106Z,9.30
2023-03-25T06:47:56.078Z,8.60
2023-03-25T06:56:07.361Z,8.90
2023-03-25T07:00:11.519Z,9.70
2023-03-25T07:04:12.643Z,10.30
2023-03-25T07:08:15.798Z,9.90
2023-03-25T07:12:16.786Z,9.70
2023-03-25T07:16:18.038Z,9.20
2023-03-25T07:20:19.240Z,9.70
2023-03-25T07:24:20.479Z,9.30
2023-03-25T07:28:21.764Z,9.20
2023-03-25T07:32:23.044Z,9.60
2023-03-25T07:36:24.865Z,10.50
2023-03-25T07:40:25.897Z,9.70
2023-03-25T07:44:27.263Z,9.80
2023-03-25T07:48:28.392Z,9.50
2023-03-25T07:52:29.678Z,9.50
2023-03-25T07:56:30.810Z,9.10
2023-03-25T08:00:31.778Z,9.70
2023-03-25T08:04:32.940Z,9.30
2023-03-25T08:08:34.417Z,9.30
2023-03-25T08:12:36.740Z,9.90
2023-03-25T08:16:37.799Z,9.90
2023-03-25T08:20:39.336Z,10.00
2023-03-25T08:24:41.065Z,10.30
2023-03-25T08:28:42.082Z,10.10
2023-03-25T08:32:45.217Z,9.90
2023-03-25T08:36:46.452Z,9.60
2023-03-25T08:40:48.102Z,10.20
2023-03-25T08:44:49.146Z,10.60
2023-03-25T08:48:50.389Z,11.00
2023-03-25T08:52:52.880Z,11.10
2023-03-25T08:56:54.776Z,10.70
2023-03-25T09:00:56.881Z,10.10
2023-03-25T09:04:58.082Z,9.60
2023-03-25T09:08:59.862Z,9.70
2023-03-25T09:13:01.030Z,9.60
2023-03-25T09:17:02.471Z,9.70
2023-03-25T09:21:04.126Z,9.70
2023-03-25T09:25:06.282Z,9.30
2023-03-25T09:29:07.290Z,7.20
2023-03-25T09:33:08.463Z,5.90
2023-03-25T09:37:09.778Z,5.20
2023-03-25T09:41:23.441Z,5.20
2023-03-25T09:45:42.982Z,5.50
2023-03-25T09:49:49.436Z,5.30
2023-03-25T09:53:57.035Z,5.80
2023-03-25T09:58:01.863Z,6.40
2023-03-25T10:02:10.307Z,6.00
2023-03-25T10:06:20.643Z,6.70
2023-03-25T10:10:43.454Z,6.40
2023-03-25T10:15:03.675Z,7.00
2023-03-25T10:19:13.277Z,7.80
2023-03-25T10:23:18.302Z,8.00
2023-03-25T10:27:23.571Z,7.80
2023-03-25T10:31:27.850Z,8.70
2023-03-25T10:35:32.717Z,8.70
2023-03-25T10:39:35.599Z,8.90
2023-03-25T10:43:42.110Z,9.10
2023-03-25T10:47:44.369Z,9.30
2023-03-25T10:51:47.480Z,9.00
2023-03-25T10:55:51.992Z,9.40
2023-03-25T10:59:57.047Z,9.70
2023-03-25T11:04:00.325Z,9.90
2023-03-25T11:08:14.784Z,10.10
2023-03-25T11:12:08.011Z,10.50
2023-03-25T11:16:11.439Z,10.60
2023-03-25T11:20:21.365Z,10.10
2023-03-25T11:24:25.278Z,10.10
2023-03-25T11:28:39.439Z,10.80
2023-03-25T11:32:41.614Z,11.90
2023-03-25T11:36:55.492Z,11.00
2023-03-25T11:40:58.059Z,12.00
2023-03-25T11:45:01.043Z,12.20
2023-03-25T11:49:11.108Z,11.40
2023-03-25T11:53:15.758Z,11.60
2023-03-25T11:57:31.448Z,12.50
2023-03-25T12:01:47.806Z,14.10
2023-03-25T12:06:06.615Z,12.40
2023-03-25T12:10:12.023Z,12.40
2023-03-25T12:14:31.769Z,12.90
2023-03-25T12:18:47.355Z,12.80
2023-03-25T12:23:07.882Z,12.60
2023-03-25T12:27:18.018Z,12.40
2023-03-25T12:31:39.221Z,10.90
2023-03-25T12:35:44.177Z,11.50
2023-03-25T12:40:07.225Z,12.00
2023-03-25T12:44:34.970Z,12.30
2023-03-25T12:48:56.141Z,12.80
2023-03-25T12:53:18.959Z,12.10
2023-03-25T12:57:52.352Z,12.50
2023-03-25T13:01:57.371Z,12.60
2023-03-25T13:06:34.079Z,13.00
2023-03-25T13:10:38.076Z,13.20
2023-03-25T13:14:42.872Z,13.50
2023-03-25T13:18:53.590Z,13.30
2023-03-25T13:23:00.380Z,11.70
2023-03-25T13:27:03.778Z,12.10
2023-03-25T13:31:11.680Z,13.30
2023-03-25T13:35:19.189Z,13.60
2023-03-25T13:39:26.798Z,13.80
2023-03-25T13:43:34.468Z,13.30
2023-03-25T13:47:42.748Z,13.50
2023-03-25T13:51:43.897Z,14.20
2023-03-25T13:56:00.722Z,14.40
2023-03-25T14:00:11.473Z,12.10
2023-03-25T14:04:30.920Z,11.30
2023-03-25T14:08:58.471Z,11.80
2023-03-25T14:13:03.284Z,12.20
2023-03-25T14:17:05.540Z,13.00
2023-03-25T14:21:16.685Z,13.00
2023-03-25T14:25:30.755Z,13.10
2023-03-25T14:29:35.721Z,13.50
2023-03-25T14:34:05.605Z,13.60
2023-03-25T14:38:11.324Z,13.80
2023-03-25T14:42:24.317Z,14.90
2023-03-25T14:46:31.271Z,13.70
2023-03-25T14:50:34.356Z,14.10
2023-03-25T14:54:35.790Z,13.70
2023-03-25T14:58:38.246Z,14.20
2023-03-25T15:02:41.645Z,13.30
2023-03-25T15:06:43.213Z,13.60
2023-03-25T15:10:50.649Z,14.10
2023-03-25T15:14:56.152Z,13.40
2023-03-25T15:18:59.873Z,13.00
2023-03-25T15:23:22.682Z,13.10
2023-03-25T15:27:36.732Z,13.60
2023-03-25T15:31:47.662Z,13.20
2023-03-25T15:35:55.878Z,12.70
2023-03-25T15:40:11.427Z,12.60
2023-03-25T15:44:19.359Z,12.30
2023-03-25T15:48:41.962Z,12.20
2023-03-25T15:53:05.307Z,12.60
2023-03-25T15:57:26.006Z,12.60
2023-03-25T16:01:29.650Z,12.30
2023-03-25T16:05:33.150Z,12.10
2023-03-25T16:09:40.968Z,12.00
2023-03-25T16:13:42.326Z,11.80
2023-03-25T16:17:45.612Z,12.50
2023-03-25T16:21:49.159Z,12.20
2023-03-25T16:25:51.070Z,11.70
2023-03-25T16:29:53.940Z,11.90
2023-03-25T16:33:58.348Z,12.00
2023-03-25T16:38:01.098Z,12.00
2023-03-25T16:42:10.213Z,11.60
2023-03-25T16:46:14.373Z,11.40
2023-03-25T16:50:19.145Z,11.50
2023-03-25T16:54:24.082Z,11.40
2023-03-25T16:58:27.488Z,11.60
2023-03-25T17:02:30.908Z,10.90
2023-03-25T17:06:37.313Z,11.10
2023-03-25T17:10:51.504Z,10.50
2023-03-25T17:14:56.323Z,10.50
2023-03-25T17:18:58.007Z,11.30
2023-03-25T17:23:02.803Z,10.90
2023-03-25T17:27:07.742Z,11.00
2023-03-25T17:31:37.116Z,10.80
2023-03-25T17:35:39.483Z,10.70
2023-03-25T17:39:45.001Z,10.70
2023-03-25T17:43:49.243Z,10.50
2023-03-25T17:47:50.928Z,11.10
2023-03-25T17:51:52.171Z,10.60
2023-03-25T17:55:54.841Z,10.30
2023-03-25T17:59:57.236Z,10.30
2023-03-25T18:03:58.213Z,10.60
2023-03-25T18:08:00.171Z,10.70
2023-03-25T18:12:01.615Z,10.60
2023-03-25T18:16:03.159Z,10.30
2023-03-25T18:20:16.048Z,10.50
2023-03-25T18:24:17.263Z,10.50
2023-03-25T18:28:18.439Z,10.60
2023-03-25T18:32:19.953Z,10.30
2023-03-25T18:36:21.473Z,10.50
2023-03-25T18:40:27.562Z,10.30
2023-03-25T18:44:30.070Z,10.80
2023-03-25T18:48:31.538Z,10.20
2023-03-25T18:52:32.571Z,10.30
2023-03-25T18:56:34.087Z,9.90
2023-03-25T19:00:38.992Z,10.30
2023-03-25T19:04:47.569Z,9.60
2023-03-25T19:08:43.812Z,9.40
2023-03-25T19:12:45.701Z,9.70
2023-03-25T19:20:50.127Z,9.40
2023-03-25T19:24:51.266Z,9.70
2023-03-25T19:28:52.430Z,9.80
2023-03-25T19:32:53.768Z,9.50
2023-03-25T19:36:56.849Z,9.00
2023-03-25T19:41:09.035Z,9.60
2023-03-25T19:45:13.104Z,9.30
2023-03-25T19:49:14.112Z,8.90
2023-03-25T19:53:15.326Z,9.60
2023-03-25T19:57:17.208Z,9.00
2023-03-25T20:01:18.492Z,9.20
2023-03-25T20:05:21.732Z,9.00
2023-03-25T20:09:22.879Z,9.00
2023-03-25T20:13:24.850Z,9.00
2023-03-25T20:17:26.070Z,8.90
2023-03-25T20:21:27.200Z,9.20
2023-03-25T20:25:28.347Z,8.90
2023-03-25T20:29:29.706Z,8.70
2023-03-25T20:33:31.180Z,9.30
2023-03-25T20:41:42.325Z,9.10
2023-03-25T20:45:43.331Z,9.10
2023-03-25T20:49:44.419Z,9.30
2023-03-25T20:53:46.092Z,9.30
2023-03-25T20:57:47.057Z,9.30
2023-03-25T21:01:50.273Z,9.20
2023-03-25T21:05:57.672Z,9.00
2023-03-25T21:09:58.913Z,9.00
2023-03-25T21:14:00.122Z,9.30
2023-03-25T21:18:01.321Z,9.30
2023-03-25T21:22:02.623Z,10.00
2023-03-25T21:26:06.821Z,9.40
2023-03-25T21:30:11.357Z,9.20
2023-03-25T21:34:14.794Z,9.90
2023-03-25T21:38:15.892Z,9.30
2023-03-25T21:42:18.637Z,9.10
2023-03-25T21:46:29.656Z,9.20
2023-03-25T21:50:30.921Z,9.30
2023-03-25T21:54:31.900Z,8.90
2023-03-25T21:58:35.679Z,9.30
2023-03-25T22:02:36.625Z,9.80
2023-03-25T22:06:37.753Z,8.80
2023-03-25T22:10:38.724Z,9.40
2023-03-25T22:14:39.894Z,9.10
2023-03-25T22:18:42.290Z,10.00
2023-03-25T22:22:43.321Z,9.90
2023-03-25T22:26:44.558Z,9.90
2023-03-25T22:30:45.677Z,9.90
2023-03-25T22:34:46.788Z,10.10
2023-03-25T22:38:51.239Z,10.40
2023-03-25T22:42:52.456Z,9.90
2023-03-25T22:46:53.704Z,9.20
2023-03-25T22:50:55.124Z,9.40
2023-03-25T22:54:56.089Z,9.10
2023-03-25T22:58:57.215Z,9.30
2023-03-25T23:02:58.310Z,9.40
2023-03-25T23:07:07.633Z,9.10
2023-03-25T23:11:08.781Z,9.20
2023-03-25T23:15:10.443Z,9.90
2023-03-25T23:19:13.061Z,10.20
2023-03-25T23:23:14.272Z,9.70
2023-03-25T23:27:15.684Z,9.80
2023-03-25T23:31:19.659Z,9.60
2023-03-25T23:35:20.820Z,9.60
2023-03-25T23:39:21.994Z,9.30
2023-03-25T23:43:23.183Z,8.90
2023-03-25T23:47:24.333Z,8.70
2023-03-25T23:51:25.559Z,8.90
2023-03-25T23:55:27.026Z,9.30
2023-03-25T23:59:28.331Z,9.10
